Time;durP1;ratioP1;P1;durP2;ratioP2;P2;SDS_P1;SDS_P2;PMS_P1;PMS_P2;Temp;Humidity;BMP_temperature;BMP_pressure;BME280_temperature;BME280_humidity;BME280_pressure;Samples;Min_cycle;Max_cycle;Signal;HPM_P1;HPM_P2
2023/04/20 00:00:00;;;;;;;;;18.33;15.67;;;;;12.96;91.28;101441.41;5020458;28;45482;-74
2023/04/20 00:02:25;;;;;;;;;12.00;12.00;;;;;12.98;91.97;101442.13;5004693;28;46467;-74
2023/04/20 00:04:51;;;;;;;;;16.00;15.00;;;;;12.83;91.73;101446.31;5004723;28;45336;-74
2023/04/20 00:07:17;;;;;;;;;16.00;16.00;;;;;12.76;91.69;101437.00;5020200;28;45292;-73
2023/04/20 00:09:42;;;;;;;;;16.00;14.33;;;;;12.65;92.01;101439.84;5003518;28;45667;-73
2023/04/20 00:12:07;;;;;;;;;21.33;14.33;;;;;12.85;91.04;101436.13;5002920;28;47536;-73
2023/04/20 00:14:33;;;;;;;;;12.67;12.67;;;;;12.92;90.05;101439.13;5004485;28;45379;-73
2023/04/20 00:16:58;;;;;;;;;16.67;14.00;;;;;12.88;90.10;101416.72;5002559;28;45281;-74
2023/04/20 00:19:25;;;;;;;;;14.67;12.67;;;;;12.95;89.57;101428.75;5020293;28;45535;-73
2023/04/20 00:21:50;;;;;;;;;5.67;4.33;;;;;12.88;89.38;101420.31;5004611;28;45523;-73
2023/04/20 00:24:15;;;;;;;;;16.67;13.67;;;;;12.76;90.47;101426.09;5004198;28;45284;-74
2023/04/20 00:26:40;;;;;;;;;14.00;14.00;;;;;12.76;89.79;101423.34;5002990;28;45336;-73
2023/04/20 00:29:06;;;;;;;;;13.00;13.00;;;;;12.71;90.39;101414.75;5003379;28;45355;-74
2023/04/20 00:31:31;;;;;;;;;17.67;14.00;;;;;12.70;90.63;101421.22;5002871;28;47178;-73
2023/04/20 00:33:57;;;;;;;;;15.00;12.00;;;;;12.67;89.39;101400.56;5019493;28;45296;-74
2023/04/20 00:36:22;;;;;;;;;12.00;10.00;;;;;12.64;91.16;101405.44;5004571;28;45366;-72
2023/04/20 00:38:47;;;;;;;;;11.00;11.00;;;;;12.61;91.99;101397.56;5003186;28;45417;-72
2023/04/20 00:41:13;;;;;;;;;14.00;11.00;;;;;12.57;91.75;101404.28;5002567;28;47149;-73
2023/04/20 00:43:49;;;;;;;;;13.33;12.00;;;;;12.63;91.81;101392.81;5003951;28;45278;-73
2023/04/20 00:46:15;;;;;;;;;15.00;13.00;;;;;12.40;92.61;101368.59;5003135;28;45357;-73
2023/04/20 00:48:41;;;;;;;;;15.33;12.00;;;;;12.63;92.92;101390.09;5003276;28;45332;-73
2023/04/20 00:51:06;;;;;;;;;16.33;14.33;;;;;12.59;92.21;101381.34;5003748;28;46375;-74
2023/04/20 00:53:31;;;;;;;;;13.67;10.00;;;;;12.68;92.10;101391.38;5004160;28;45395;-73
2023/04/20 00:55:57;;;;;;;;;12.67;12.00;;;;;12.63;92.57;101388.22;5002510;28;45369;-73
2023/04/20 00:58:22;;;;;;;;;16.00;13.67;;;;;12.54;91.08;101391.81;5019736;28;45526;-73
2023/04/20 01:00:48;;;;;;;;;11.67;11.67;;;;;12.48;93.19;101371.47;5019070;28;46765;-73
2023/04/20 01:03:13;;;;;;;;;12.67;10.33;;;;;12.28;93.58;101367.03;5002641;28;45431;-73
2023/04/20 01:05:39;;;;;;;;;12.67;12.67;;;;;12.43;93.70;101373.75;5004142;28;45615;-73
2023/04/20 01:08:05;;;;;;;;;12.00;11.33;;;;;12.37;93.87;101381.66;5004110;28;45273;-73
2023/04/20 01:10:31;;;;;;;;;13.33;13.00;;;;;12.39;94.92;101383.22;5003589;28;45576;-73
2023/04/20 01:12:57;;;;;;;;;12.00;11.33;;;;;12.42;94.88;101388.38;5002249;28;45415;-73
2023/04/20 01:15:23;;;;;;;;;13.67;12.00;;;;;12.26;95.82;101366.31;5004039;28;45362;-73
2023/04/20 01:17:48;;;;;;;;;12.67;12.67;;;;;12.28;95.35;101377.91;5019044;28;45254;-73
2023/04/20 01:20:13;;;;;;;;;16.33;13.00;;;;;12.22;96.19;101378.50;5018600;28;46526;-73
2023/04/20 01:22:47;;;;;;;;;11.67;11.67;;;;;12.24;96.68;101381.09;5003710;28;45422;-74
2023/04/20 01:25:12;;;;;;;;;9.67;7.00;;;;;12.22;96.41;101374.91;5003877;28;45237;-73
2023/04/20 01:27:38;;;;;;;;;11.00;9.67;;;;;12.29;95.91;101374.19;5003879;28;45498;-74
2023/04/20 01:30:04;;;;;;;;;12.00;11.33;;;;;12.26;95.42;101363.59;5003639;28;46142;-73
2023/04/20 01:32:30;;;;;;;;;13.00;11.33;;;;;12.22;96.66;101367.59;5002064;28;45267;-71
2023/04/20 01:34:56;;;;;;;;;10.33;10.33;;;;;12.15;99.65;101366.44;5003715;28;45441;-71
2023/04/20 01:37:21;;;;;;;;;12.67;11.00;;;;;12.19;98.25;101357.00;5018972;28;45272;-74
2023/04/20 01:39:46;;;;;;;;;13.00;12.00;;;;;12.23;100.00;101366.59;5002029;28;46419;-73
2023/04/20 01:42:12;;;;;;;;;16.33;12.00;;;;;12.12;98.22;101361.31;5018181;28;45426;-73
2023/04/20 01:44:38;;;;;;;;;13.00;12.00;;;;;12.17;98.28;101364.47;5003378;28;45776;-72
2023/04/20 01:47:04;;;;;;;;;10.33;10.00;;;;;12.18;98.16;101358.00;5003922;28;45506;-73
2023/04/20 01:49:30;;;;;;;;;13.33;10.67;;;;;12.11;98.41;101348.69;5003352;28;45429;-73
2023/04/20 01:51:55;;;;;;;;;12.00;12.00;;;;;12.07;100.00;101347.25;5002741;28;45262;-73
2023/04/20 01:54:21;;;;;;;;;13.00;10.33;;;;;12.10;100.00;101357.88;5015154;28;45521;-73
2023/04/20 01:56:46;;;;;;;;;13.00;13.00;;;;;12.03;99.38;101360.31;4999310;28;45338;-73
2023/04/20 01:59:12;;;;;;;;;14.33;13.33;;;;;12.09;100.00;101361.59;5003020;28;45547;-72
2023/04/20 02:01:37;;;;;;;;;10.33;10.33;;;;;12.11;99.42;101365.03;5002466;28;45284;-73
2023/04/20 02:04:03;;;;;;;;;10.33;10.00;;;;;12.08;98.39;101358.00;5003166;28;45315;-73
2023/04/20 02:06:28;;;;;;;;;11.00;10.00;;;;;12.02;99.10;101366.75;5003415;28;45449;-72
2023/04/20 02:08:54;;;;;;;;;11.33;11.33;;;;;11.91;99.90;101357.84;5001581;28;45570;-73
2023/04/20 02:11:20;;;;;;;;;13.00;11.67;;;;;11.89;100.00;101366.16;5001072;28;45288;-72
2023/04/20 02:13:46;;;;;;;;;11.00;11.00;;;;;11.89;100.00;101359.88;5001350;28;45422;-73
2023/04/20 02:16:11;;;;;;;;;11.33;11.00;;;;;11.78;100.00;101368.16;5003146;28;45458;-73
2023/04/20 02:18:37;;;;;;;;;13.00;13.00;;;;;11.74;100.00;101367.59;5002717;28;45540;-72
2023/04/20 02:21:02;;;;;;;;;11.00;11.00;;;;;11.64;100.00;101361.22;5001434;28;45457;-72
2023/04/20 02:23:27;;;;;;;;;12.00;10.33;;;;;11.52;100.00;101351.47;5018089;28;45255;-72
2023/04/20 02:25:53;;;;;;;;;11.67;9.67;;;;;11.54;100.00;101361.19;5002804;28;45423;-73
2023/04/20 02:28:18;;;;;;;;;13.00;11.67;;;;;11.54;100.00;101366.63;5001360;28;47336;-73
2023/04/20 02:30:43;;;;;;;;;12.00;10.33;;;;;11.50;100.00;101370.66;5002556;28;45870;-72
2023/04/20 02:33:09;;;;;;;;;12.00;10.33;;;;;11.44;100.00;101362.19;5001676;28;45368;-73
2023/04/20 02:35:35;;;;;;;;;12.33;10.67;;;;;11.47;100.00;101364.63;5003064;28;45435;-73
2023/04/20 02:38:00;;;;;;;;;9.00;9.00;;;;;11.41;100.00;101385.06;5002556;28;45377;-72
2023/04/20 02:40:25;;;;;;;;;10.33;10.00;;;;;11.36;100.00;101378.34;5004644;28;45265;-72
2023/04/20 02:42:51;;;;;;;;;14.33;12.67;;;;;11.38;100.00;101376.34;5006169;28;45710;-72
2023/04/20 02:45:16;;;;;;;;;11.33;10.67;;;;;11.38;100.00;101382.66;5006316;28;45576;-72
2023/04/20 02:47:41;;;;;;;;;11.67;11.00;;;;;11.35;100.00;101384.75;5020757;28;46998;-73
2023/04/20 02:50:08;;;;;;;;;10.67;10.67;;;;;11.29;100.00;101376.16;5004520;28;45262;-73
2023/04/20 02:52:33;;;;;;;;;9.33;8.00;;;;;11.26;100.00;101372.84;5021004;28;45320;-72
2023/04/20 02:54:59;;;;;;;;;12.67;10.67;;;;;11.19;100.00;101372.53;5005967;28;45667;-72
2023/04/20 02:57:24;;;;;;;;;6.33;6.33;;;;;11.20;100.00;101373.41;5005524;28;45268;-72
2023/04/20 02:59:50;;;;;;;;;10.67;8.33;;;;;11.18;100.00;101381.69;5005658;28;45248;-72
2023/04/20 03:02:16;;;;;;;;;17.33;10.33;;;;;11.19;100.00;101379.84;5004494;28;45303;-72
2023/04/20 03:04:42;;;;;;;;;12.00;10.33;;;;;11.13;100.00;101385.81;5004542;28;45445;-72
2023/04/20 03:07:08;;;;;;;;;9.33;9.33;;;;;11.12;100.00;101386.81;5005393;28;45349;-72
2023/04/20 03:09:34;;;;;;;;;15.00;11.33;;;;;11.02;100.00;101377.78;5020625;28;45311;-72
2023/04/20 03:12:01;;;;;;;;;10.33;6.67;;;;;10.96;100.00;101375.59;5004027;28;45434;-72
2023/04/20 03:14:26;;;;;;;;;10.00;9.33;;;;;10.97;100.00;101388.19;5021000;28;45550;-72
2023/04/20 03:16:52;;;;;;;;;9.00;9.00;;;;;11.03;100.00;101393.09;5020475;28;47174;-72
2023/04/20 03:19:17;;;;;;;;;11.00;10.67;;;;;11.00;100.00;101388.78;5005281;28;45296;-72
2023/04/20 03:21:43;;;;;;;;;9.00;8.67;;;;;10.99;100.00;101392.50;5005782;28;45515;-72
2023/04/20 03:24:09;;;;;;;;;11.33;10.00;;;;;10.97;100.00;101383.59;5006001;28;45349;-71
2023/04/20 03:26:35;;;;;;;;;9.00;9.00;;;;;10.94;100.00;101378.44;5004727;28;46037;-72
2023/04/20 03:29:00;;;;;;;;;10.00;10.00;;;;;10.96;100.00;101381.03;5005257;28;45474;-72
2023/04/20 03:31:26;;;;;;;;;9.33;8.00;;;;;10.89;100.00;101384.28;5020428;28;45431;-72
2023/04/20 03:33:51;;;;;;;;;9.00;8.33;;;;;10.82;100.00;101391.25;5004332;28;45445;-72
2023/04/20 03:36:17;;;;;;;;;19.33;11.00;;;;;10.81;100.00;101377.81;5004924;28;45363;-72
2023/04/20 03:38:42;;;;;;;;;11.00;9.67;;;;;10.79;100.00;101380.66;5020080;28;45324;-72
2023/04/20 03:41:07;;;;;;;;;11.33;11.00;;;;;10.77;100.00;101366.34;5003780;28;45319;-72
2023/04/20 03:43:33;;;;;;;;;8.00;8.00;;;;;10.72;100.00;101376.75;5005469;28;45268;-72
2023/04/20 03:45:59;;;;;;;;;11.00;10.00;;;;;10.71;100.00;101364.16;5003419;28;47156;-73
2023/04/20 03:48:24;;;;;;;;;9.00;8.33;;;;;10.82;100.00;101380.38;5020226;28;45304;-72
2023/04/20 03:50:50;;;;;;;;;11.00;9.67;;;;;10.80;100.00;101376.94;5003998;28;45312;-73
2023/04/20 03:53:15;;;;;;;;;10.33;10.33;;;;;10.76;100.00;101383.63;5003531;28;45503;-74
2023/04/20 03:55:41;;;;;;;;;11.00;11.00;;;;;10.77;100.00;101382.66;5016351;28;46522;-73
2023/04/20 03:58:06;;;;;;;;;10.67;9.67;;;;;10.79;100.00;101391.53;5003514;28;45439;-73
2023/04/20 04:00:31;;;;;;;;;10.33;9.67;;;;;10.73;100.00;101394.78;4987095;28;45406;-73
2023/04/20 04:02:57;;;;;;;;;11.67;8.33;;;;;10.77;100.00;101392.66;5020387;28;45306;-73
2023/04/20 04:05:23;;;;;;;;;10.00;8.00;;;;;10.73;100.00;101397.50;5004665;28;45372;-73
2023/04/20 04:07:49;;;;;;;;;11.00;11.00;;;;;10.64;100.00;101401.03;5002946;28;45248;-73
2023/04/20 04:10:16;;;;;;;;;10.00;8.67;;;;;10.65;100.00;101404.59;5019454;28;45852;-72
2023/04/20 04:12:41;;;;;;;;;9.33;8.00;;;;;10.65;100.00;101405.47;5019987;28;45422;-71
2023/04/20 04:15:08;;;;;;;;;10.00;10.00;;;;;10.56;100.00;101395.38;5004660;28;46206;-73
2023/04/20 04:17:33;;;;;;;;;11.00;11.00;;;;;10.47;100.00;101401.59;5004462;28;45282;-72
2023/04/20 04:19:58;;;;;;;;;12.67;11.67;;;;;10.52;100.00;101404.78;5036273;28;45360;-73
2023/04/20 04:22:23;;;;;;;;;11.00;8.67;;;;;10.49;100.00;101408.63;5003388;28;45563;-73
2023/04/20 04:24:49;;;;;;;;;11.33;9.67;;;;;10.45;100.00;101403.59;5004553;28;45416;-73
2023/04/20 04:27:15;;;;;;;;;9.33;9.33;;;;;10.50;100.00;101417.66;5003709;28;45515;-73
2023/04/20 04:29:40;;;;;;;;;10.33;9.00;;;;;10.37;100.00;101400.69;5004412;28;45312;-72
2023/04/20 04:32:06;;;;;;;;;5.00;5.00;;;;;10.34;100.00;101409.09;5019787;28;45347;-72
2023/04/20 04:34:33;;;;;;;;;12.00;10.00;;;;;10.35;100.00;101410.81;5003776;28;46207;-72
2023/04/20 04:36:59;;;;;;;;;15.75;15.25;;;;;10.39;100.00;101423.13;5004038;28;45255;-72
2023/04/20 04:39:28;;;;;;;;;16.33;13.67;;;;;10.35;100.00;101416.25;5004210;28;45438;-72
2023/04/20 04:41:54;;;;;;;;;15.00;11.00;;;;;10.27;100.00;101418.75;5003777;28;45379;-72
2023/04/20 04:44:20;;;;;;;;;10.00;8.33;;;;;10.24;100.00;101427.16;5003789;28;46099;-73
2023/04/20 04:46:46;;;;;;;;;10.67;9.00;;;;;10.03;100.00;101416.22;5003907;28;45530;-72
2023/04/20 04:49:11;;;;;;;;;12.33;9.00;;;;;10.00;100.00;101430.91;5004165;28;45326;-72
2023/04/20 04:51:37;;;;;;;;;11.67;10.00;;;;;10.05;100.00;101422.38;5019146;28;45388;-72
2023/04/20 04:54:03;;;;;;;;;11.00;11.00;;;;;9.95;100.00;101425.00;5003712;28;45557;-72
2023/04/20 04:56:28;;;;;;;;;14.67;10.33;;;;;10.04;100.00;101431.50;5002939;28;45181;-72
2023/04/20 04:58:53;;;;;;;;;12.33;9.00;;;;;9.97;100.00;101431.16;5002125;28;45309;-72
2023/04/20 05:01:19;;;;;;;;;12.00;10.00;;;;;10.02;100.00;101434.34;5002463;28;45543;-74
2023/04/20 05:03:45;;;;;;;;;10.67;10.67;;;;;10.04;100.00;101435.09;5003216;28;45585;-72
2023/04/20 05:06:10;;;;;;;;;16.00;11.33;;;;;10.06;100.00;101434.97;5002013;28;45258;-72
2023/04/20 05:08:35;;;;;;;;;11.00;9.67;;;;;10.06;100.00;101435.84;5003655;28;45447;-73
2023/04/20 05:11:01;;;;;;;;;10.67;10.00;;;;;10.09;100.00;101446.41;5002238;28;45433;-73
2023/04/20 05:13:26;;;;;;;;;13.67;9.00;;;;;10.05;100.00;101436.81;5018571;28;47420;-73
2023/04/20 05:15:52;;;;;;;;;11.67;10.00;;;;;10.05;100.00;101444.09;5003357;28;45245;-71
2023/04/20 05:18:17;;;;;;;;;13.33;11.67;;;;;10.08;100.00;101450.13;5001853;28;45283;-72
2023/04/20 05:20:42;;;;;;;;;8.00;8.00;;;;;10.05;100.00;101453.13;5003959;28;45366;-71
2023/04/20 05:23:08;;;;;;;;;11.33;11.00;;;;;10.14;100.00;101455.06;5003095;28;45475;-73
2023/04/20 05:25:33;;;;;;;;;12.33;12.33;;;;;10.15;100.00;101454.03;5003083;28;45469;-74
2023/04/20 05:27:59;;;;;;;;;10.33;10.33;;;;;10.09;100.00;101449.13;5018331;28;45368;-73
2023/04/20 05:30:24;;;;;;;;;16.00;12.33;;;;;10.21;100.00;101457.28;5003404;28;45402;-72
2023/04/20 05:32:50;;;;;;;;;10.00;9.33;;;;;10.26;100.00;101460.47;5003928;28;45654;-73
2023/04/20 05:35:15;;;;;;;;;13.00;11.00;;;;;10.32;100.00;101458.09;5003448;28;45245;-73
2023/04/20 05:37:41;;;;;;;;;11.00;11.00;;;;;10.35;100.00;101457.00;5002366;28;45325;-72
2023/04/20 05:40:08;;;;;;;;;16.33;11.00;;;;;10.46;100.00;101460.50;5018304;28;45332;-73
2023/04/20 05:42:33;;;;;;;;;14.33;11.00;;;;;10.46;100.00;101444.22;5018237;28;46211;-72
2023/04/20 05:44:58;;;;;;;;;11.33;9.00;;;;;10.52;100.00;101448.25;5002767;28;45319;-73
2023/04/20 05:47:26;;;;;;;;;10.00;10.00;;;;;10.65;100.00;101458.94;5003180;28;45394;-74
2023/04/20 05:49:51;;;;;;;;;13.00;12.00;;;;;10.73;100.00;101457.31;5003536;28;45586;-72
2023/04/20 05:52:17;;;;;;;;;12.00;9.00;;;;;10.88;100.00;101466.00;5001084;28;45816;-72
2023/04/20 05:54:42;;;;;;;;;12.75;12.75;;;;;10.93;100.00;101459.16;5018071;28;45340;-74
2023/04/20 05:57:07;;;;;;;;;14.50;10.00;;;;;10.95;100.00;101460.88;5002632;28;45315;-73
2023/04/20 05:59:33;;;;;;;;;11.67;11.67;;;;;11.01;100.00;101450.34;5002733;28;45387;-73
2023/04/20 06:01:59;;;;;;;;;11.00;9.33;;;;;11.36;100.00;101451.78;5001928;28;45300;-73
2023/04/20 06:04:24;;;;;;;;;13.33;13.33;;;;;12.01;100.00;101451.31;5002720;28;45396;-74
2023/04/20 06:06:50;;;;;;;;;16.00;12.67;;;;;12.26;100.00;101455.38;5002755;28;45730;-74
2023/04/20 06:09:15;;;;;;;;;14.00;14.00;;;;;12.08;100.00;101452.47;5003008;28;45697;-73
2023/04/20 06:11:40;;;;;;;;;14.00;12.00;;;;;12.04;100.00;101441.00;5002314;28;45389;-74
2023/04/20 06:14:06;;;;;;;;;11.67;11.00;;;;;13.61;100.00;101447.81;5002966;28;45323;-72
2023/04/20 06:16:31;;;;;;;;;12.00;9.00;;;;;13.83;88.08;101446.53;5004743;28;45436;-77
2023/04/20 06:18:56;;;;;;;;;11.00;11.00;;;;;13.20;89.20;101452.72;5006140;28;45452;-77
2023/04/20 06:21:23;;;;;;;;;15.00;13.00;;;;;12.81;91.27;101461.94;5005988;28;45459;-78
2023/04/20 06:23:49;;;;;;;;;12.33;11.67;;;;;12.55;90.47;101455.38;5021139;28;45322;-77
2023/04/20 06:26:14;;;;;;;;;11.00;11.00;;;;;12.52;92.86;101456.50;5003967;28;45431;-78
2023/04/20 06:28:40;;;;;;;;;11.67;11.00;;;;;13.31;91.53;101445.34;5004086;28;45357;-77
2023/04/20 06:31:06;;;;;;;;;13.00;11.33;;;;;14.82;84.18;101441.94;5005668;28;45222;-77
2023/04/20 06:33:32;;;;;;;;;16.00;14.33;;;;;14.56;79.39;101445.47;5005740;28;45242;-78
2023/04/20 06:35:57;;;;;;;;;11.00;11.00;;;;;13.75;79.56;101460.94;5004938;28;45351;-77
2023/04/20 06:38:24;;;;;;;;;12.00;11.00;;;;;13.05;83.07;101451.44;5005656;28;44883;-77
2023/04/20 06:40:50;;;;;;;;;13.50;13.25;;;;;12.64;87.20;101470.88;5003009;28;47368;-78
2023/04/20 06:43:15;;;;;;;;;11.33;11.00;;;;;12.16;90.49;101449.91;5020675;28;45919;-78
2023/04/20 06:45:41;;;;;;;;;14.25;14.25;;;;;11.97;93.38;101466.22;5005561;28;45276;-78
2023/04/20 06:48:06;;;;;;;;;14.50;13.00;;;;;11.74;94.57;101459.25;5005793;28;45694;-77
2023/04/20 06:50:32;;;;;;;;;18.25;15.75;;;;;11.79;96.16;101435.22;5020146;28;48276;-76
2023/04/20 06:52:57;;;;;;;;;16.67;16.67;;;;;12.14;94.91;101442.88;5005050;28;45598;-77
2023/04/20 06:55:23;;;;;;;;;18.67;14.33;;;;;12.37;93.82;101455.22;5003686;28;45334;-77
2023/04/20 06:57:48;;;;;;;;;17.00;13.00;;;;;12.08;92.99;101430.69;5006018;28;45331;-78
2023/04/20 07:00:14;;;;;;;;;17.33;13.67;;;;;12.29;93.12;101463.25;5005604;28;45936;-78
2023/04/20 07:02:45;;;;;;;;;17.67;12.33;;;;;12.18;93.14;101442.47;5005474;28;45280;-78
2023/04/20 07:05:10;;;;;;;;;15.75;11.75;;;;;12.14;93.22;101454.63;5020085;28;45436;-77
2023/04/20 07:07:36;;;;;;;;;15.00;14.50;;;;;12.24;93.96;101457.38;5004204;28;45404;-77
2023/04/20 07:10:02;;;;;;;;;16.25;14.25;;;;;12.23;94.58;101445.59;5020179;28;46996;-78
2023/04/20 07:12:27;;;;;;;;;17.75;17.75;;;;;12.36;94.47;101451.63;5005251;28;45279;-78
2023/04/20 07:14:53;;;;;;;;;14.75;13.50;;;;;12.11;94.89;101438.59;5005608;28;45252;-78
2023/04/20 07:17:18;;;;;;;;;16.00;14.33;;;;;12.26;94.95;101445.34;5005662;28;45247;-78
2023/04/20 07:19:44;;;;;;;;;20.33;14.33;;;;;12.54;94.68;101459.09;5003861;28;47222;-77
2023/04/20 07:22:09;;;;;;;;;16.33;13.00;;;;;12.50;93.86;101439.44;5005326;28;45378;-77
2023/04/20 07:24:35;;;;;;;;;14.00;11.67;;;;;12.38;94.81;101444.19;5003353;28;45331;-78
2023/04/20 07:27:01;;;;;;;;;19.67;13.33;;;;;12.46;94.58;101438.88;5005170;28;45264;-76
2023/04/20 07:29:27;;;;;;;;;17.75;14.00;;;;;12.60;94.54;101453.06;5002126;28;47073;-77
2023/04/20 07:31:52;;;;;;;;;14.33;13.00;;;;;12.55;93.14;101447.19;5004568;28;45351;-78
2023/04/20 07:34:17;;;;;;;;;15.00;14.67;;;;;12.71;93.56;101447.47;5004943;28;45423;-76
2023/04/20 07:36:43;;;;;;;;;14.00;14.00;;;;;12.46;96.04;101452.50;5003980;28;45458;-77
2023/04/20 07:39:08;;;;;;;;;20.50;18.00;;;;;12.59;94.65;101445.91;5019667;28;45500;-77
2023/04/20 07:41:35;;;;;;;;;19.00;14.33;;;;;12.76;94.56;101442.44;5003425;28;45452;-77
2023/04/20 07:44:00;;;;;;;;;16.00;16.00;;;;;12.85;93.75;101431.53;5005063;28;45438;-77
2023/04/20 07:46:27;;;;;;;;;20.00;18.75;;;;;13.07;92.53;101451.28;5005316;28;45378;-76
2023/04/20 07:48:52;;;;;;;;;34.25;23.50;;;;;12.81;91.40;101429.22;5003303;28;47168;-77
2023/04/20 07:51:18;;;;;;;;;31.75;22.50;;;;;12.78;92.82;101432.25;5002930;28;45462;-77
2023/04/20 07:53:43;;;;;;;;;20.25;19.75;;;;;12.86;92.67;101427.78;5004813;28;45267;-78
2023/04/20 07:56:09;;;;;;;;;21.25;18.25;;;;;13.18;91.11;101432.91;5004826;28;45716;-77
2023/04/20 07:58:37;;;;;;;;;24.75;19.50;;;;;13.42;89.13;101429.66;5018965;28;47495;-77
2023/04/20 08:01:02;;;;;;;;;19.67;16.00;;;;;13.13;87.24;101435.22;5004741;28;45292;-76
2023/04/20 08:03:28;;;;;;;;;16.00;15.50;;;;;13.20;88.20;101436.34;5003400;28;45367;-76
2023/04/20 08:05:53;;;;;;;;;20.50;17.00;;;;;13.62;88.02;101424.97;5003594;28;45269;-77
2023/04/20 08:08:19;;;;;;;;;19.00;16.00;;;;;13.68;83.53;101423.47;5019638;28;46658;-78
2023/04/20 08:10:44;;;;;;;;;18.00;16.25;;;;;13.34;82.48;101435.00;5004587;28;45475;-77
2023/04/20 08:13:10;;;;;;;;;22.25;20.00;;;;;13.45;81.82;101431.19;5003125;28;45441;-77
2023/04/20 08:15:35;;;;;;;;;18.00;16.75;;;;;13.64;80.77;101409.28;5005185;28;45294;-77
2023/04/20 08:18:00;;;;;;;;;19.00;17.75;;;;;13.96;80.28;101417.84;5019537;28;47442;-76
2023/04/20 08:20:26;;;;;;;;;26.75;20.50;;;;;13.91;75.94;101392.88;5004481;28;45414;-76
2023/04/20 08:22:52;;;;;;;;;18.33;17.00;;;;;14.09;75.48;101413.91;5004506;28;45460;-76
2023/04/20 08:25:17;;;;;;;;;20.00;18.33;;;;;14.38;74.09;101400.88;5002648;28;45266;-75
2023/04/20 08:27:43;;;;;;;;;16.67;16.67;;;;;14.08;71.72;101390.31;5004059;28;46663;-76
2023/04/20 08:30:08;;;;;;;;;26.75;24.50;;;;;13.99;71.33;101395.69;5004586;28;45279;-76
2023/04/20 08:32:34;;;;;;;;;17.00;15.67;;;;;14.34;69.60;101400.28;5004572;28;45273;-77
2023/04/20 08:34:59;;;;;;;;;15.00;13.67;;;;;14.80;69.17;101399.19;5003525;28;45603;-76
2023/04/20 08:37:25;;;;;;;;;20.67;16.67;;;;;15.02;66.60;101402.41;5004404;28;45340;-78
2023/04/20 08:39:51;;;;;;;;;16.33;15.00;;;;;15.43;65.10;101385.16;5004156;28;45498;-78
2023/04/20 08:42:16;;;;;;;;;17.00;13.33;;;;;15.57;63.63;101390.03;5004561;28;45224;-77
2023/04/20 08:44:42;;;;;;;;;16.67;14.33;;;;;15.96;59.95;101392.22;5005232;28;45144;-77
2023/04/20 08:47:10;;;;;;;;;15.67;12.00;;;;;16.58;60.54;101392.66;5003796;28;46278;-77
2023/04/20 08:49:38;;;;;;;;;13.67;11.00;;;;;16.94;59.66;101387.69;5018768;28;45399;-76
2023/04/20 08:52:04;;;;;;;;;15.00;14.00;;;;;17.39;60.51;101381.53;5003429;28;45371;-76
2023/04/20 08:54:29;;;;;;;;;13.33;13.00;;;;;17.22;56.24;101367.00;5002989;28;45502;-77
2023/04/20 08:56:55;;;;;;;;;18.67;17.67;;;;;16.82;58.29;101369.84;5002196;28;47085;-77
2023/04/20 08:59:21;;;;;;;;;14.33;12.33;;;;;17.29;57.79;101384.50;5004346;28;45410;-77
2023/04/20 09:01:46;;;;;;;;;16.00;15.67;;;;;17.49;55.07;101376.69;5002548;28;45317;-77
2023/04/20 09:04:22;;;;;;;;;16.00;15.00;;;;;17.45;55.95;101378.09;5004684;28;45549;-76
2023/04/20 09:06:50;;;;;;;;;15.00;13.33;;;;;17.82;56.19;101358.19;5018955;28;47944;-77
2023/04/20 09:09:19;;;;;;;;;17.33;15.00;;;;;18.02;52.60;101358.56;5003845;28;45358;-77
2023/04/20 09:11:46;;;;;;;;;15.00;14.33;;;;;17.77;53.59;101344.13;5002275;28;45317;-76
2023/04/20 09:14:14;;;;;;;;;15.67;15.67;;;;;17.90;51.86;101353.47;5004432;28;45257;-76
2023/04/20 09:16:53;;;;;;;;;14.33;12.67;;;;;17.80;52.09;101352.88;5003573;28;46368;-77
2023/04/20 09:19:22;;;;;;;;;17.00;15.00;;;;;18.00;50.83;101338.66;5004202;28;45270;-77
2023/04/20 09:21:49;;;;;;;;;18.00;16.67;;;;;17.94;50.15;101337.50;5003265;28;45400;-76
2023/04/20 09:24:15;;;;;;;;;16.67;16.67;;;;;18.11;51.61;101350.09;5002677;28;45441;-77
2023/04/20 09:26:40;;;;;;;;;14.67;14.67;;;;;18.34;49.42;101314.31;5018552;28;45552;-76
2023/04/20 09:29:19;;;;;;;;;14.33;11.67;;;;;18.79;46.38;101340.91;5002609;28;45513;-76
2023/04/20 09:31:45;;;;;;;;;14.33;12.00;;;;;18.55;47.06;101319.13;5002422;28;45402;-76
2023/04/20 09:34:11;;;;;;;;;7.33;7.00;;;;;19.13;45.24;101315.59;5018765;28;45304;-77
2023/04/20 09:36:41;;;;;;;;;12.00;11.00;;;;;19.18;46.29;101329.66;5003069;28;46127;-76
2023/04/20 09:39:13;;;;;;;;;16.33;13.00;;;;;19.34;45.28;101320.34;5003395;28;45335;-77
2023/04/20 09:41:40;;;;;;;;;11.67;9.67;;;;;19.48;46.26;101296.59;5003229;28;45361;-77
2023/04/20 09:44:07;;;;;;;;;14.00;11.67;;;;;19.14;45.88;101300.75;5018366;28;45356;-76
2023/04/20 09:46:37;;;;;;;;;15.33;12.00;;;;;18.96;46.72;101303.06;5002898;28;46182;-76
2023/04/20 09:49:07;;;;;;;;;9.33;9.33;;;;;19.12;47.04;101297.38;5003438;28;45409;-77
2023/04/20 09:51:34;;;;;;;;;17.33;12.33;;;;;19.32;46.53;101292.09;5021692;28;45280;-77
2023/04/20 09:54:03;;;;;;;;;17.67;17.00;;;;;19.27;47.98;101305.63;5007929;28;45272;-77
2023/04/20 09:56:30;;;;;;;;;18.67;16.00;;;;;19.20;48.21;101294.50;5021938;28;47032;-76
2023/04/20 09:58:56;;;;;;;;;18.33;17.33;;;;;18.82;48.36;101290.13;5021900;28;45429;-77
2023/04/20 10:01:23;;;;;;;;;15.00;13.67;;;;;18.13;48.12;101272.88;5022191;28;45285;-77
2023/04/20 10:03:52;;;;;;;;;13.00;12.67;;;;;18.81;47.77;101291.19;5023717;28;45324;-77
2023/04/20 10:06:22;;;;;;;;;13.33;12.00;;;;;18.46;48.48;101301.81;5006652;28;45522;-77
2023/04/20 10:08:51;;;;;;;;;13.67;13.00;;;;;18.15;48.58;101281.81;5006526;28;45355;-76
2023/04/20 10:11:32;;;;;;;;;12.00;12.00;;;;;18.19;48.63;101294.19;5005683;28;45322;-77
2023/04/20 10:14:24;;;;;;;;;18.33;13.33;;;;;18.41;49.26;101293.25;5016291;28;45338;-77
2023/04/20 10:17:10;;;;;;;;;14.67;11.67;;;;;18.60;48.27;101279.03;5013409;28;45386;-75
2023/04/20 10:19:43;;;;;;;;;9.00;9.00;;;;;19.52;47.79;101260.16;5011193;28;45379;-77
2023/04/20 10:22:12;;;;;;;;;14.00;12.67;;;;;19.15;46.04;101260.28;5022110;28;45419;-77
2023/04/20 10:24:38;;;;;;;;;12.00;12.00;;;;;19.11;46.57;101275.50;5031363;28;45345;-77
2023/04/20 10:27:16;;;;;;;;;12.00;10.67;;;;;18.52;48.29;101280.97;5010776;28;45396;-74
2023/04/20 10:29:42;;;;;;;;;14.67;11.33;;;;;18.01;48.89;101279.88;5006486;28;45246;-76
2023/04/20 10:32:07;;;;;;;;;13.67;12.67;;;;;17.33;50.69;101281.47;5004447;28;45470;-77
2023/04/20 10:34:34;;;;;;;;;16.67;16.33;;;;;16.92;51.94;101283.53;5006982;28;45532;-77
2023/04/20 10:37:10;;;;;;;;;14.00;12.67;;;;;17.08;51.91;101255.19;5021873;28;45784;-77
2023/04/20 10:39:39;;;;;;;;;19.00;17.00;;;;;17.28;52.74;101274.81;5006509;28;45382;-77
2023/04/20 10:42:04;;;;;;;;;16.00;15.67;;;;;17.29;53.48;101276.53;5007024;28;45624;-78
2023/04/20 10:44:31;;;;;;;;;15.33;15.33;;;;;17.78;52.63;101260.63;5006464;28;45415;-76
2023/04/20 10:46:57;;;;;;;;;19.00;16.67;;;;;17.82;53.22;101264.72;5004119;28;46139;-76
2023/04/20 10:49:27;;;;;;;;;13.67;12.00;;;;;18.19;53.25;101263.91;5020907;28;45469;-74
2023/04/20 10:51:53;;;;;;;;;17.67;15.00;;;;;17.60;55.08;101249.91;5020548;28;45292;-74
2023/04/20 10:54:19;;;;;;;;;19.00;18.00;;;;;16.93;55.54;101251.47;5006065;28;45344;-74
2023/04/20 10:56:46;;;;;;;;;25.25;20.50;;;;;16.63;57.63;101269.56;5005408;28;45244;-75
2023/04/20 10:59:14;;;;;;;;;16.67;16.00;;;;;16.59;58.08;101270.88;5005841;28;45252;-77
2023/04/20 11:01:40;;;;;;;;;16.33;16.33;;;;;16.39;59.01;101259.44;5004830;28;45464;-77
2023/04/20 11:04:06;;;;;;;;;16.33;16.33;;;;;16.45;58.84;101272.47;5005891;28;45482;-77